Time;durP1;ratioP1;P1;durP2;ratioP2;P2;SDS_P1;SDS_P2;PMS_P1;PMS_P2;Temp;Humidity;BMP_temperature;BMP_pressure;BME280_temperature;BME280_humidity;BME280_pressure;Samples;Min_cycle;Max_cycle;Signal;HPM_P1;HPM_P2
2021/12/13 00:01:59;;;;;;;;;;;8.80;99.90;;;;;;4989049;28;20234;-73
2021/12/13 00:04:28;;;;;;;;;;;8.80;99.90;;;;;;4989361;28;20084;-73
2021/12/13 00:06:58;;;;;;;;;;;8.80;99.90;;;;;;4988014;28;20076;-73
2021/12/13 00:09:27;;;;;;;;;;;8.90;99.90;;;;;;4989031;28;20082;-72
2021/12/13 00:11:56;;;;;;;;;;;8.80;99.90;;;;;;4988893;28;20153;-73
2021/12/13 00:14:27;;;;;;;;;;;8.80;99.90;;;;;;4989022;28;20182;-73
2021/12/13 00:17:02;;;;;;;;;;;8.80;99.90;;;;;;4988038;28;20065;-73
2021/12/13 00:19:34;;;;;;;;;;;8.80;99.90;;;;;;4988410;28;20100;-72
2021/12/13 00:22:03;;;;;;;;;;;8.90;99.90;;;;;;4989008;28;20107;-73
2021/12/13 00:24:32;;;;;;;;;;;8.80;99.90;;;;;;4988807;28;21162;-71
2021/12/13 00:27:02;;;;;;;;;;;8.90;99.90;;;;;;4987705;28;20301;-71
2021/12/13 00:29:33;;;;;;;;;;;8.80;99.90;;;;;;4988223;28;21076;-71
2021/12/13 00:32:04;;;;;;;;;;;8.80;99.90;;;;;;4988819;28;20224;-71
2021/12/13 00:34:33;;;;;;;;;;;8.80;99.90;;;;;;4988821;28;20080;-71
2021/12/13 00:37:04;;;;;;;;;;;8.80;99.90;;;;;;4987576;28;20059;-71
2021/12/13 00:39:33;;;;;;;;;;;8.80;99.90;;;;;;4988351;28;20065;-71
2021/12/13 00:42:02;;;;;;;;;;;8.80;99.90;;;;;;4988403;28;20134;-71
2021/12/13 00:44:31;;;;;;;;;;;8.90;99.90;;;;;;4988206;28;21119;-70
2021/12/13 00:47:00;;;;;;;;;;;8.80;99.90;;;;;;4987428;28;21141;-71
2021/12/13 00:49:30;;;;;;;;;;;8.80;99.90;;;;;;4987920;28;20154;-70
2021/12/13 00:51:59;;;;;;;;;;;8.90;99.90;;;;;;4986887;28;21133;-73
2021/12/13 00:54:27;;;;;;;;;;;8.90;99.90;;;;;;4988091;28;20140;-73
2021/12/13 00:57:08;;;;;;;;;;;8.80;99.90;;;;;;4987398;28;20067;-72
2021/12/13 00:59:37;;;;;;;;;;;8.80;99.90;;;;;;4988477;28;20075;-73
2021/12/13 01:02:08;;;;;;;;;;;8.80;99.90;;;;;;4988059;28;21361;-73
2021/12/13 01:04:54;;;;;;;;;;;8.80;99.90;;;;;;4988670;28;20068;-72
2021/12/13 01:07:48;;;;;;;;;;;8.80;99.90;;;;;;4986742;28;20084;-71
2021/12/13 01:10:43;;;;;;;;;;;8.80;99.90;;;;;;4988977;28;20069;-71
2021/12/13 01:13:13;;;;;;;;;;;8.80;99.90;;;;;;4988370;28;21204;-70
2021/12/13 01:15:46;;;;;;;;;;;8.90;99.90;;;;;;4988713;28;20060;-70
2021/12/13 01:18:23;;;;;;;;;;;8.90;99.90;;;;;;4988118;28;20099;-69
2021/12/13 01:21:02;;;;;;;;;;;8.80;99.90;;;;;;4988739;28;21031;-72
2021/12/13 01:23:41;;;;;;;;;;;8.80;99.90;;;;;;4988353;28;20073;-71
2021/12/13 01:26:28;;;;;;;;;;;8.90;99.90;;;;;;4987518;28;20061;-70
2021/12/13 01:28:57;;;;;;;;;;;8.90;99.90;;;;;;4988057;28;20060;-70
2021/12/13 01:31:27;;;;;;;;;;;8.90;99.90;;;;;;4988052;28;20158;-70
2021/12/13 01:33:55;;;;;;;;;;;8.90;99.90;;;;;;4987386;28;20074;-70
2021/12/13 01:36:27;;;;;;;;;;;8.90;99.90;;;;;;4987518;28;20169;-72
2021/12/13 01:38:56;;;;;;;;;;;8.90;99.90;;;;;;4987868;28;21189;-73
2021/12/13 01:41:25;;;;;;;;;;;9.00;99.90;;;;;;4986901;28;20068;-73
2021/12/13 01:43:54;;;;;;;;;;;9.00;99.90;;;;;;4986857;28;20065;-73
2021/12/13 01:46:22;;;;;;;;;;;8.90;99.90;;;;;;4987195;28;21086;-73
2021/12/13 01:48:49;;;;;;;;;;;8.90;99.90;;;;;;4986543;28;20331;-72
2021/12/13 01:51:20;;;;;;;;;;;8.90;99.90;;;;;;4987263;28;20268;-73
2021/12/13 01:53:50;;;;;;;;;;;8.90;99.90;;;;;;4987415;28;20127;-71
2021/12/13 01:56:38;;;;;;;;;;;8.90;99.90;;;;;;4987571;28;20073;-72
2021/12/13 01:59:17;;;;;;;;;;;8.90;99.90;;;;;;4986706;28;21235;-72
2021/12/13 02:01:44;;;;;;;;;;;8.90;99.90;;;;;;4988009;28;21071;-73
2021/12/13 02:04:14;;;;;;;;;;;8.90;99.90;;;;;;4987054;28;21184;-73
2021/12/13 02:06:41;;;;;;;;;;;8.90;99.90;;;;;;4985699;28;20068;-73
2021/12/13 02:09:13;;;;;;;;;;;8.90;99.90;;;;;;4986714;28;20182;-72
2021/12/13 02:11:40;;;;;;;;;;;8.90;99.90;;;;;;4986821;28;20060;-72
2021/12/13 02:14:12;;;;;;;;;;;8.80;99.90;;;;;;4986496;28;20061;-72
2021/12/13 02:16:57;;;;;;;;;;;8.80;99.90;;;;;;4986527;28;21218;-72
2021/12/13 02:19:26;;;;;;;;;;;8.80;99.90;;;;;;4987098;28;21115;-72
2021/12/13 02:22:03;;;;;;;;;;;8.80;99.90;;;;;;4986571;28;21149;-73
2021/12/13 02:24:32;;;;;;;;;;;8.80;99.90;;;;;;4987301;28;20077;-72
2021/12/13 02:27:00;;;;;;;;;;;8.80;99.90;;;;;;4987176;28;20091;-73
2021/12/13 02:29:35;;;;;;;;;;;8.80;99.90;;;;;;4984272;28;21363;-73
2021/12/13 02:32:03;;;;;;;;;;;8.80;99.90;;;;;;4987042;28;20082;-72
2021/12/13 02:34:33;;;;;;;;;;;8.80;99.90;;;;;;4986951;28;21169;-73
2021/12/13 02:37:00;;;;;;;;;;;8.80;99.90;;;;;;4986553;28;20076;-72
2021/12/13 02:39:39;;;;;;;;;;;8.80;99.90;;;;;;4985762;28;20075;-73
2021/12/13 02:42:10;;;;;;;;;;;8.80;99.90;;;;;;4986165;28;20097;-73
2021/12/13 02:44:38;;;;;;;;;;;8.80;99.90;;;;;;4986655;28;21032;-73
2021/12/13 02:47:07;;;;;;;;;;;8.80;99.90;;;;;;4986387;28;20162;-70
2021/12/13 02:49:34;;;;;;;;;;;8.90;99.90;;;;;;4986555;28;20170;-70
2021/12/13 02:52:04;;;;;;;;;;;8.90;99.90;;;;;;4986260;28;20105;-70
2021/12/13 02:54:36;;;;;;;;;;;8.90;99.90;;;;;;4986340;28;20060;-70
2021/12/13 02:57:06;;;;;;;;;;;8.90;99.90;;;;;;4978607;28;20277;-71
2021/12/13 02:59:36;;;;;;;;;;;8.90;99.90;;;;;;4985786;28;21233;-70
2021/12/13 03:02:06;;;;;;;;;;;8.90;99.90;;;;;;4986334;28;20173;-71
2021/12/13 03:04:34;;;;;;;;;;;8.90;99.90;;;;;;4986259;28;20133;-70
2021/12/13 03:07:02;;;;;;;;;;;8.90;99.90;;;;;;4985561;28;20099;-72
2021/12/13 03:09:30;;;;;;;;;;;8.90;99.90;;;;;;4986177;28;20116;-70
2021/12/13 03:11:58;;;;;;;;;;;8.90;99.90;;;;;;4985824;28;21263;-71
2021/12/13 03:14:29;;;;;;;;;;;8.90;99.90;;;;;;4986317;28;20162;-71
2021/12/13 03:17:00;;;;;;;;;;;8.90;99.90;;;;;;4985888;28;20161;-73
2021/12/13 03:19:31;;;;;;;;;;;8.90;99.90;;;;;;4989081;28;20076;-71
2021/12/13 03:22:19;;;;;;;;;;;8.90;99.90;;;;;;4989822;28;21175;-71
2021/12/13 03:24:49;;;;;;;;;;;8.90;99.90;;;;;;4963322;28;20101;-70
2021/12/13 03:27:42;;;;;;;;;;;8.90;99.90;;;;;;4989529;28;20092;-71
2021/12/13 03:30:11;;;;;;;;;;;8.90;99.90;;;;;;4989439;28;20051;-70
2021/12/13 03:32:43;;;;;;;;;;;8.90;99.90;;;;;;4989656;28;21028;-71
2021/12/13 03:35:13;;;;;;;;;;;8.90;99.90;;;;;;4990098;28;20712;-71
2021/12/13 03:37:42;;;;;;;;;;;8.90;99.90;;;;;;4988849;28;20052;-71
2021/12/13 03:40:11;;;;;;;;;;;8.90;99.90;;;;;;4989470;28;20153;-71
2021/12/13 03:42:40;;;;;;;;;;;8.90;99.90;;;;;;4988995;28;20182;-70
2021/12/13 03:45:10;;;;;;;;;;;8.90;99.90;;;;;;4989478;28;20153;-71
2021/12/13 03:47:39;;;;;;;;;;;8.90;99.90;;;;;;4988678;28;20075;-71
2021/12/13 03:50:10;;;;;;;;;;;8.90;99.90;;;;;;4988981;28;21150;-70
2021/12/13 03:52:41;;;;;;;;;;;8.80;99.90;;;;;;4989054;28;20181;-71
2021/12/13 03:55:09;;;;;;;;;;;8.80;99.90;;;;;;4988549;28;20169;-70
2021/12/13 03:57:38;;;;;;;;;;;8.90;99.90;;;;;;4988870;28;20203;-71
2021/12/13 04:00:06;;;;;;;;;;;8.80;99.90;;;;;;4988749;28;20075;-71
2021/12/13 04:02:35;;;;;;;;;;;8.80;99.90;;;;;;5008450;28;20066;-70
2021/12/13 04:05:04;;;;;;;;;;;8.90;99.90;;;;;;4988748;28;20377;-71
2021/12/13 04:07:36;;;;;;;;;;;8.90;99.90;;;;;;4988501;28;20141;-70
2021/12/13 04:10:06;;;;;;;;;;;8.90;99.90;;;;;;4988980;28;21138;-70
2021/12/13 04:12:40;;;;;;;;;;;8.90;99.90;;;;;;4989175;28;20060;-71
2021/12/13 04:15:12;;;;;;;;;;;8.90;99.90;;;;;;4989086;28;20215;-70
2021/12/13 04:17:45;;;;;;;;;;;8.90;99.90;;;;;;4988488;28;20052;-70
2021/12/13 04:20:15;;;;;;;;;;;8.80;99.90;;;;;;4989195;28;20059;-70
2021/12/13 04:22:49;;;;;;;;;;;8.80;99.90;;;;;;4989175;28;20052;-71
2021/12/13 04:25:17;;;;;;;;;;;8.80;99.90;;;;;;4988843;28;21109;-70
2021/12/13 04:27:48;;;;;;;;;;;8.80;99.90;;;;;;4987686;28;20069;-70
2021/12/13 04:30:25;;;;;;;;;;;8.80;99.90;;;;;;4987897;28;20066;-71
2021/12/13 04:32:54;;;;;;;;;;;8.80;99.90;;;;;;4988986;28;20067;-70
2021/12/13 04:35:21;;;;;;;;;;;8.80;99.90;;;;;;4988445;28;20060;-72
2021/12/13 04:37:52;;;;;;;;;;;8.80;99.90;;;;;;4988228;28;20060;-69
2021/12/13 04:40:21;;;;;;;;;;;8.80;99.90;;;;;;4987885;28;20995;-69
2021/12/13 04:42:50;;;;;;;;;;;8.80;99.90;;;;;;4987644;28;20051;-71
2021/12/13 04:45:19;;;;;;;;;;;8.80;99.90;;;;;;4988421;28;20060;-70
2021/12/13 04:47:48;;;;;;;;;;;8.80;99.90;;;;;;4988395;28;20153;-71
2021/12/13 04:50:17;;;;;;;;;;;8.80;99.90;;;;;;4988263;28;20059;-71
2021/12/13 04:52:45;;;;;;;;;;;8.80;99.90;;;;;;4988451;28;20074;-71
2021/12/13 04:55:15;;;;;;;;;;;8.70;99.90;;;;;;4987836;28;21143;-71
2021/12/13 04:57:43;;;;;;;;;;;8.80;99.90;;;;;;4985708;28;20068;-70
2021/12/13 05:00:13;;;;;;;;;;;8.70;99.90;;;;;;4986981;28;21056;-71
2021/12/13 05:02:43;;;;;;;;;;;8.80;99.90;;;;;;4987922;28;20099;-71
2021/12/13 05:05:11;;;;;;;;;;;8.80;99.90;;;;;;4989138;28;20076;-70
2021/12/13 05:07:38;;;;;;;;;;;8.80;99.90;;;;;;4987728;28;21086;-71
2021/12/13 05:10:06;;;;;;;;;;;8.80;99.90;;;;;;4987427;28;20068;-71
2021/12/13 05:12:34;;;;;;;;;;;8.80;99.90;;;;;;4987818;28;20097;-73
2021/12/13 05:15:04;;;;;;;;;;;8.80;99.90;;;;;;4988264;28;20059;-71
2021/12/13 05:17:34;;;;;;;;;;;8.70;99.90;;;;;;4987688;28;20051;-71
2021/12/13 05:20:07;;;;;;;;;;;8.80;99.90;;;;;;4987287;28;20058;-71
2021/12/13 05:22:39;;;;;;;;;;;8.80;99.90;;;;;;4987043;28;21087;-71
2021/12/13 05:25:07;;;;;;;;;;;8.80;99.90;;;;;;4988198;28;20091;-71
2021/12/13 05:27:38;;;;;;;;;;;8.80;99.90;;;;;;4987422;28;20075;-71
2021/12/13 05:30:11;;;;;;;;;;;8.80;99.90;;;;;;4987409;28;21158;-71
2021/12/13 05:32:40;;;;;;;;;;;8.80;99.90;;;;;;4987988;28;20235;-72
2021/12/13 05:35:14;;;;;;;;;;;8.80;99.90;;;;;;4987328;28;20083;-71
2021/12/13 05:37:42;;;;;;;;;;;8.80;99.90;;;;;;4987796;28;20082;-71
2021/12/13 05:40:11;;;;;;;;;;;8.80;99.90;;;;;;4988480;28;20051;-72
2021/12/13 05:42:42;;;;;;;;;;;8.80;99.90;;;;;;4986471;28;20061;-71
2021/12/13 05:45:10;;;;;;;;;;;8.80;99.90;;;;;;4987247;28;20059;-72
2021/12/13 05:47:37;;;;;;;;;;;8.90;99.90;;;;;;4987775;28;20075;-71
2021/12/13 05:50:05;;;;;;;;;;;8.80;99.90;;;;;;4987484;28;20077;-71
2021/12/13 05:52:36;;;;;;;;;;;8.80;99.90;;;;;;4987711;28;21149;-72
2021/12/13 05:55:07;;;;;;;;;;;8.80;99.90;;;;;;4987505;28;20060;-71
2021/12/13 05:57:36;;;;;;;;;;;8.80;99.90;;;;;;4987149;28;20133;-71
2021/12/13 06:00:08;;;;;;;;;;;8.80;99.90;;;;;;4988987;28;20140;-71
2021/12/13 06:02:42;;;;;;;;;;;8.80;99.90;;;;;;5001406;28;20255;-72
2021/12/13 06:05:15;;;;;;;;;;;8.90;99.90;;;;;;4989127;28;20190;-71
2021/12/13 06:07:42;;;;;;;;;;;8.90;99.90;;;;;;4987705;28;20057;-71
2021/12/13 06:10:11;;;;;;;;;;;8.90;99.90;;;;;;4989301;28;20144;-71
2021/12/13 06:12:39;;;;;;;;;;;9.00;99.90;;;;;;4987830;28;20149;-72
2021/12/13 06:15:23;;;;;;;;;;;9.00;99.90;;;;;;4989206;28;20105;-72
2021/12/13 06:17:53;;;;;;;;;;;9.00;99.90;;;;;;4987977;28;20173;-72
2021/12/13 06:20:22;;;;;;;;;;;9.00;99.90;;;;;;4988403;28;21074;-70
2021/12/13 06:22:50;;;;;;;;;;;9.00;99.90;;;;;;4988844;28;20149;-72
2021/12/13 06:25:18;;;;;;;;;;;9.00;99.90;;;;;;4988520;28;20072;-71
2021/12/13 06:27:48;;;;;;;;;;;9.00;99.90;;;;;;4988168;28;21169;-71
2021/12/13 06:30:21;;;;;;;;;;;9.00;99.90;;;;;;4987854;28;20074;-71
2021/12/13 06:32:53;;;;;;;;;;;8.90;99.90;;;;;;4988698;28;21224;-71
2021/12/13 06:35:51;;;;;;;;;;;8.90;99.90;;;;;;4988570;28;20060;-71
2021/12/13 06:38:31;;;;;;;;;;;8.90;99.90;;;;;;4988732;28;20132;-72
2021/12/13 06:41:00;;;;;;;;;;;9.00;99.90;;;;;;4988026;28;20060;-72
2021/12/13 06:43:28;;;;;;;;;;;9.00;99.90;;;;;;4988639;28;20061;-72
2021/12/13 06:45:58;;;;;;;;;;;8.90;99.90;;;;;;4988475;28;20194;-72
2021/12/13 06:48:40;;;;;;;;;;;8.90;99.90;;;;;;4988251;28;20069;-72
2021/12/13 06:51:09;;;;;;;;;;;8.90;99.90;;;;;;4988774;28;20060;-72
2021/12/13 06:53:36;;;;;;;;;;;8.90;99.90;;;;;;4991636;28;20150;-72
2021/12/13 06:56:24;;;;;;;;;;;8.80;99.90;;;;;;4992541;28;20067;-72
2021/12/13 06:58:53;;;;;;;;;;;8.90;99.90;;;;;;4992403;28;20178;-72
2021/12/13 07:01:21;;;;;;;;;;;8.90;99.90;;;;;;4992073;28;20132;-72
2021/12/13 07:03:52;;;;;;;;;;;8.80;99.90;;;;;;4992245;28;20149;-72
2021/12/13 07:06:20;;;;;;;;;;;8.80;99.90;;;;;;4992092;28;20079;-72
2021/12/13 07:08:47;;;;;;;;;;;8.80;99.90;;;;;;4992395;28;20071;-72
2021/12/13 07:11:17;;;;;;;;;;;8.80;99.90;;;;;;4992286;28;20075;-72
2021/12/13 07:13:48;;;;;;;;;;;8.80;99.90;;;;;;4991871;28;20060;-72
2021/12/13 07:16:17;;;;;;;;;;;8.80;99.90;;;;;;4992618;28;20063;-74
2021/12/13 07:18:49;;;;;;;;;;;8.80;99.90;;;;;;4990032;28;20060;-72
2021/12/13 07:21:18;;;;;;;;;;;8.70;99.90;;;;;;4987269;28;20085;-72
2021/12/13 07:23:53;;;;;;;;;;;8.70;99.90;;;;;;4987043;28;20085;-71
2021/12/13 07:26:29;;;;;;;;;;;8.70;99.90;;;;;;4987712;28;20059;-73
2021/12/13 07:28:56;;;;;;;;;;;8.80;99.90;;;;;;4985702;28;20068;-72
2021/12/13 07:31:24;;;;;;;;;;;8.80;99.90;;;;;;4989050;28;20061;-72
2021/12/13 07:33:52;;;;;;;;;;;8.80;99.90;;;;;;4988548;28;20271;-72
2021/12/13 07:36:21;;;;;;;;;;;8.70;99.90;;;;;;4989191;28;20161;-72
2021/12/13 07:38:50;;;;;;;;;;;8.70;99.90;;;;;;4988999;28;20069;-73
2021/12/13 07:41:17;;;;;;;;;;;8.70;99.90;;;;;;4989045;28;21214;-72
2021/12/13 07:43:45;;;;;;;;;;;8.80;99.90;;;;;;4989796;28;21126;-72
2021/12/13 07:46:24;;;;;;;;;;;8.80;99.90;;;;;;4987630;28;20067;-71
2021/12/13 07:48:54;;;;;;;;;;;8.80;99.90;;;;;;4990210;28;20060;-72
2021/12/13 07:51:25;;;;;;;;;;;8.80;99.90;;;;;;4989759;28;20074;-73
2021/12/13 07:53:55;;;;;;;;;;;8.80;99.90;;;;;;4989678;28;20059;-72
2021/12/13 07:56:23;;;;;;;;;;;8.80;99.90;;;;;;4989032;28;20105;-73
2021/12/13 07:58:51;;;;;;;;;;;8.80;99.90;;;;;;4988117;28;20154;-73
2021/12/13 08:01:19;;;;;;;;;;;8.80;99.90;;;;;;4989384;28;21040;-72
2021/12/13 08:03:48;;;;;;;;;;;8.80;99.90;;;;;;4988756;28;20076;-73
2021/12/13 08:06:17;;;;;;;;;;;8.80;99.90;;;;;;4988472;28;20263;-73
2021/12/13 08:08:49;;;;;;;;;;;8.80;99.90;;;;;;4988691;28;20073;-72
2021/12/13 08:11:18;;;;;;;;;;;8.90;99.90;;;;;;4987996;28;20178;-72
2021/12/13 08:13:55;;;;;;;;;;;8.80;99.90;;;;;;4988863;28;20067;-73
2021/12/13 08:16:29;;;;;;;;;;;8.90;99.90;;;;;;4989195;28;20080;-73
2021/12/13 08:19:05;;;;;;;;;;;8.90;99.90;;;;;;4991174;28;20269;-72
2021/12/13 08:21:37;;;;;;;;;;;8.90;99.90;;;;;;4987806;28;20080;-72
2021/12/13 08:24:05;;;;;;;;;;;8.90;99.90;;;;;;4987991;28;20060;-72
2021/12/13 08:26:34;;;;;;;;;;;8.90;99.90;;;;;;4986549;28;20069;-72
2021/12/13 08:29:03;;;;;;;;;;;8.90;99.90;;;;;;4987813;28;20082;-72
2021/12/13 08:31:32;;;;;;;;;;;8.90;99.90;;;;;;4988242;28;20136;-72
2021/12/13 08:34:01;;;;;;;;;;;8.90;99.90;;;;;;4988580;28;20075;-74
2021/12/13 08:36:31;;;;;;;;;;;9.00;99.90;;;;;;4988329;28;20068;-73
2021/12/13 08:39:05;;;;;;;;;;;8.90;99.90;;;;;;4989132;28;20199;-72
2021/12/13 08:41:34;;;;;;;;;;;8.90;99.90;;;;;;4988772;28;20107;-72
2021/12/13 08:44:05;;;;;;;;;;;8.90;99.90;;;;;;4988543;28;20069;-72
2021/12/13 08:46:40;;;;;;;;;;;8.90;99.90;;;;;;4987433;28;20142;-72
2021/12/13 08:49:15;;;;;;;;;;;8.90;99.90;;;;;;4987994;28;20297;-72
2021/12/13 08:51:50;;;;;;;;;;;8.90;99.90;;;;;;4988496;28;21149;-72
2021/12/13 08:54:21;;;;;;;;;;;9.00;99.90;;;;;;4988472;28;21385;-71
2021/12/13 08:56:50;;;;;;;;;;;9.00;99.90;;;;;;4987712;28;20165;-73
2021/12/13 08:59:20;;;;;;;;;;;9.00;99.90;;;;;;4987557;28;20157;-72
2021/12/13 09:01:50;;;;;;;;;;;9.10;99.90;;;;;;4988135;28;20213;-73
2021/12/13 09:04:22;;;;;;;;;;;9.10;99.90;;;;;;4988687;28;20246;-73
2021/12/13 09:06:52;;;;;;;;;;;9.20;99.90;;;;;;4987810;28;21023;-72
2021/12/13 09:09:21;;;;;;;;;;;9.20;99.90;;;;;;4987973;28;20051;-73
2021/12/13 09:11:54;;;;;;;;;;;9.20;99.90;;;;;;4987267;28;20068;-72
2021/12/13 09:14:23;;;;;;;;;;;9.30;99.90;;;;;;4985382;28;20202;-72
2021/12/13 09:16:55;;;;;;;;;;;9.30;99.90;;;;;;4980318;28;20060;-72
2021/12/13 09:19:24;;;;;;;;;;;9.40;99.90;;;;;;4986767;28;20068;-72
2021/12/13 09:21:56;;;;;;;;;;;9.40;99.90;;;;;;4983055;28;20229;-73
2021/12/13 09:24:27;;;;;;;;;;;9.40;99.90;;;;;;4986133;28;20069;-73
2021/12/13 09:26:57;;;;;;;;;;;9.40;99.90;;;;;;4989132;28;20086;-72
2021/12/13 09:29:27;;;;;;;;;;;9.40;99.90;;;;;;4988653;28;21125;-71
2021/12/13 09:31:54;;;;;;;;;;;9.40;99.90;;;;;;4988812;28;20066;-72
2021/12/13 09:34:22;;;;;;;;;;;9.40;99.90;;;;;;4988771;28;20061;-72
2021/12/13 09:36:50;;;;;;;;;;;9.50;99.90;;;;;;4988994;28;20133;-71
2021/12/13 09:39:23;;;;;;;;;;;9.50;99.90;;;;;;4987204;28;20068;-71
2021/12/13 09:41:57;;;;;;;;;;;9.50;99.90;;;;;;4984653;28;20051;-71
2021/12/13 09:44:30;;;;;;;;;;;9.50;99.90;;;;;;4983923;28;20191;-73
2021/12/13 09:47:00;;;;;;;;;;;9.50;99.90;;;;;;4987625;28;21097;-71
2021/12/13 09:49:29;;;;;;;;;;;9.60;99.90;;;;;;4988388;28;21318;-71
2021/12/13 09:51:59;;;;;;;;;;;9.60;99.90;;;;;;4988797;28;20061;-72
2021/12/13 09:54:29;;;;;;;;;;;9.70;99.90;;;;;;4988144;28;20051;-71
2021/12/13 09:57:00;;;;;;;;;;;9.80;99.90;;;;;;4988393;28;20097;-71
2021/12/13 09:59:28;;;;;;;;;;;9.90;99.90;;;;;;4988330;28;20065;-72
2021/12/13 10:01:56;;;;;;;;;;;9.90;99.90;;;;;;4987580;28;20060;-72
2021/12/13 10:04:26;;;;;;;;;;;10.00;99.90;;;;;;4985759;28;20157;-70
2021/12/13 10:06:55;;;;;;;;;;;10.00;99.90;;;;;;4982630;28;20108;-71
2021/12/13 10:09:24;;;;;;;;;;;10.10;99.90;;;;;;4981968;28;20060;-71
2021/12/13 10:11:52;;;;;;;;;;;10.10;99.90;;;;;;4984887;28;20178;-71
2021/12/13 10:14:23;;;;;;;;;;;10.20;99.90;;;;;;4984720;28;20085;-70
2021/12/13 10:16:51;;;;;;;;;;;10.20;99.90;;;;;;4993150;28;20153;-70
2021/12/13 10:19:20;;;;;;;;;;;10.30;99.90;;;;;;4984798;28;20104;-72
2021/12/13 10:21:48;;;;;;;;;;;10.30;99.90;;;;;;4981733;28;20082;-71
2021/12/13 10:24:17;;;;;;;;;;;10.40;99.90;;;;;;4986213;28;20150;-71
2021/12/13 10:26:45;;;;;;;;;;;10.40;99.90;;;;;;4986612;28;20058;-71
2021/12/13 10:29:15;;;;;;;;;;;10.40;99.90;;;;;;4991073;28;20059;-71
2021/12/13 10:31:45;;;;;;;;;;;10.50;99.90;;;;;;4989644;28;20077;-71
2021/12/13 10:34:14;;;;;;;;;;;10.50;99.90;;;;;;4990617;28;20066;-71
2021/12/13 10:36:42;;;;;;;;;;;10.50;99.90;;;;;;4989776;28;21208;-71
2021/12/13 10:39:11;;;;;;;;;;;10.40;99.90;;;;;;4989024;28;21146;-71
2021/12/13 10:41:39;;;;;;;;;;;10.40;99.90;;;;;;4989372;28;20074;-71
2021/12/13 10:44:08;;;;;;;;;;;10.40;99.90;;;;;;4990540;28;20113;-71
2021/12/13 10:46:36;;;;;;;;;;;10.40;99.90;;;;;;4988870;28;20077;-71
2021/12/13 10:49:07;;;;;;;;;;;10.40;99.90;;;;;;4989149;28;20273;-71
2021/12/13 10:51:36;;;;;;;;;;;10.40;99.90;;;;;;4989343;28;20068;-72
2021/12/13 10:54:05;;;;;;;;;;;10.40;99.90;;;;;;4989237;28;20051;-71
2021/12/13 10:56:35;;;;;;;;;;;10.40;99.90;;;;;;4989220;28;20063;-71
2021/12/13 10:59:05;;;;;;;;;;;10.40;99.90;;;;;;4984346;28;20077;-71
2021/12/13 11:01:33;;;;;;;;;;;10.40;99.90;;;;;;4980200;28;20077;-71
2021/12/13 11:04:02;;;;;;;;;;;10.30;99.90;;;;;;4982785;28;20075;-71
2021/12/13 11:06:33;;;;;;;;;;;10.30;99.90;;;;;;4989823;28;20170;-71
2021/12/13 11:09:00;;;;;;;;;;;10.30;99.90;;;;;;4987813;28;20066;-70
2021/12/13 11:11:29;;;;;;;;;;;10.30;99.90;;;;;;4988859;28;20060;-71
2021/12/13 11:13:57;;;;;;;;;;;10.30;99.90;;;;;;4988774;28;20092;-71
2021/12/13 11:16:26;;;;;;;;;;;10.20;99.90;;;;;;4985803;28;20294;-70
2021/12/13 11:18:54;;;;;;;;;;;10.20;99.90;;;;;;4989704;28;20079;-69
2021/12/13 11:21:22;;;;;;;;;;;10.10;99.90;;;;;;5013526;28;21143;-71
2021/12/13 11:23:51;;;;;;;;;;;10.10;99.90;;;;;;4990099;28;20099;-71
2021/12/13 11:26:20;;;;;;;;;;;10.20;99.90;;;;;;4990123;28;21277;-71
2021/12/13 11:28:48;;;;;;;;;;;10.30;99.90;;;;;;4990703;28;20068;-71
2021/12/13 11:31:17;;;;;;;;;;;10.30;99.90;;;;;;4989329;28;20192;-71
2021/12/13 11:34:17;;;;;;;;;;;10.30;99.90;;;;;;4987635;28;20076;-71
2021/12/13 11:37:03;;;;;;;;;;;10.40;99.90;;;;;;4988252;28;20068;-71
2021/12/13 11:39:43;;;;;;;;;;;10.40;99.90;;;;;;4988681;28;21195;-71
2021/12/13 11:42:17;;;;;;;;;;;10.50;99.90;;;;;;4987781;28;20069;-71
2021/12/13 11:44:52;;;;;;;;;;;10.50;99.90;;;;;;4989910;28;20060;-71
2021/12/13 11:47:36;;;;;;;;;;;10.50;99.90;;;;;;4987009;28;20166;-71
2021/12/13 11:50:27;;;;;;;;;;;10.50;99.90;;;;;;4989790;28;20189;-71
2021/12/13 11:53:15;;;;;;;;;;;10.40;99.90;;;;;;4974646;28;20052;-71
2021/12/13 11:56:02;;;;;;;;;;;10.40;99.90;;;;;;4964829;28;20204;-71
2021/12/13 11:58:52;;;;;;;;;;;10.40;99.90;;;;;;4991269;28;20060;-72
2021/12/13 12:01:33;;;;;;;;;;;10.40;99.90;;;;;;4991049;28;20068;-71
2021/12/13 12:04:30;;;;;;;;;;;10.40;99.90;;;;;;4990712;28;20059;-70
2021/12/13 12:07:16;;;;;;;;;;;10.40;99.90;;;;;;4990932;28;20088;-71
2021/12/13 12:09:56;;;;;;;;;;;10.40;99.90;;;;;;4990188;28;20086;-71
2021/12/13 12:12:40;;;;;;;;;;;10.40;99.90;;;;;;4990733;28;20138;-71
2021/12/13 12:15:09;;;;;;;;;;;10.40;99.90;;;;;;4991037;28;20162;-72
2021/12/13 12:17:36;;;;;;;;;;;10.30;99.90;;;;;;4989844;28;21069;-72
2021/12/13 12:20:07;;;;;;;;;;;10.30;99.90;;;;;;4990461;28;20060;-71
2021/12/13 12:22:40;;;;;;;;;;;10.30;99.90;;;;;;4990474;28;20193;-72
2021/12/13 12:25:08;;;;;;;;;;;10.30;99.90;;;;;;4991262;28;21112;-71
2021/12/13 12:27:37;;;;;;;;;;;10.30;99.90;;;;;;4990442;28;20091;-72
2021/12/13 12:30:06;;;;;;;;;;;10.30;99.90;;;;;;4989631;28;20053;-71
2021/12/13 12:32:35;;;;;;;;;;;10.20;99.90;;;;;;4987551;28;20193;-71
2021/12/13 12:35:04;;;;;;;;;;;10.20;99.90;;;;;;4989183;28;20069;-71
2021/12/13 12:37:50;;;;;;;;;;;10.20;99.90;;;;;;4990496;28;20133;-71
2021/12/13 12:40:23;;;;;;;;;;;10.20;99.90;;;;;;4990401;28;20084;-71
2021/12/13 12:42:53;;;;;;;;;;;10.20;99.90;;;;;;4986001;28;20081;-71
2021/12/13 12:45:22;;;;;;;;;;;10.20;99.90;;;;;;4986116;28;20068;-71
2021/12/13 12:48:01;;;;;;;;;;;10.20;99.90;;;;;;4989980;28;20090;-70
2021/12/13 12:50:30;;;;;;;;;;;10.10;99.90;;;;;;4985826;28;21126;-71
2021/12/13 12:52:58;;;;;;;;;;;10.10;99.90;;;;;;4989494;28;21029;-71
2021/12/13 12:55:27;;;;;;;;;;;10.10;99.90;;;;;;4989330;28;21070;-71
2021/12/13 12:57:57;;;;;;;;;;;10.10;99.90;;;;;;4985745;28;20085;-70
2021/12/13 13:00:26;;;;;;;;;;;10.10;99.90;;;;;;4987496;28;20084;-72
2021/12/13 13:02:54;;;;;;;;;;;10.10;99.90;;;;;;4987830;28;20170;-71
2021/12/13 13:05:22;;;;;;;;;;;10.10;99.90;;;;;;4986932;28;21028;-72
2021/12/13 13:07:51;;;;;;;;;;;10.10;99.90;;;;;;4987560;28;21048;-70
2021/12/13 13:10:21;;;;;;;;;;;10.10;99.90;;;;;;4987959;28;20061;-70
2021/12/13 13:12:49;;;;;;;;;;;10.10;99.90;;;;;;4988615;28;20051;-71
2021/12/13 13:15:20;;;;;;;;;;;10.10;99.90;;;;;;4988620;28;20211;-70
2021/12/13 13:17:50;;;;;;;;;;;10.00;99.90;;;;;;4991643;28;20183;-72
2021/12/13 13:20:21;;;;;;;;;;;10.00;99.90;;;;;;4988120;28;21153;-71
2021/12/13 13:22:49;;;;;;;;;;;10.00;99.90;;;;;;4984019;28;20073;-71
2021/12/13 13:25:18;;;;;;;;;;;10.00;99.90;;;;;;4987965;28;20152;-70
2021/12/13 13:27:45;;;;;;;;;;;10.00;99.90;;;;;;4987884;28;21064;-71
2021/12/13 13:30:14;;;;;;;;;;;9.90;99.90;;;;;;4989239;28;20100;-71
2021/12/13 13:32:43;;;;;;;;;;;9.90;99.90;;;;;;4987788;28;21100;-72
2021/12/13 13:35:11;;;;;;;;;;;9.90;99.90;;;;;;4984512;28;20085;-70
2021/12/13 13:37:40;;;;;;;;;;;9.90;99.90;;;;;;4984604;28;20162;-72
2021/12/13 13:40:08;;;;;;;;;;;9.90;99.90;;;;;;4986355;28;20164;-72
2021/12/13 13:42:38;;;;;;;;;;;9.90;99.90;;;;;;4986301;28;21090;-72
2021/12/13 13:45:09;;;;;;;;;;;9.90;99.90;;;;;;4979716;28;20162;-72
2021/12/13 13:47:37;;;;;;;;;;;9.80;99.90;;;;;;4985467;28;20067;-72
2021/12/13 13:50:19;;;;;;;;;;;9.80;99.90;;;;;;4986786;28;20068;-72
2021/12/13 13:52:49;;;;;;;;;;;9.80;99.90;;;;;;4981572;28;20265;-72
2021/12/13 13:55:22;;;;;;;;;;;9.80;99.90;;;;;;4987072;28;20086;-70
2021/12/13 13:57:49;;;;;;;;;;;9.80;99.90;;;;;;4985154;28;21129;-70
2021/12/13 14:00:19;;;;;;;;;;;9.80;99.90;;;;;;4983603;28;20068;-71
2021/12/13 14:02:47;;;;;;;;;;;9.80;99.90;;;;;;4997644;28;20245;-72
2021/12/13 14:05:14;;;;;;;;;;;9.80;99.90;;;;;;4985344;28;20077;-72
2021/12/13 14:07:43;;;;;;;;;;;9.80;99.90;;;;;;4986431;28;20170;-71
2021/12/13 14:10:11;;;;;;;;;;;9.80;99.90;;;;;;4986836;28;20993;-71
2021/12/13 14:12:41;;;;;;;;;;;9.80;99.90;;;;;;4985323;28;20070;-72
2021/12/13 14:15:10;;;;;;;;;;;9.70;99.90;;;;;;4985563;28;20068;-72
2021/12/13 14:17:40;;;;;;;;;;;9.80;99.90;;;;;;4987153;28;21210;-71
2021/12/13 14:20:24;;;;;;;;;;;9.70;99.90;;;;;;4986572;28;20083;-71
2021/12/13 14:22:56;;;;;;;;;;;9.70;99.90;;;;;;4988089;28;20131;-72
2021/12/13 14:25:32;;;;;;;;;;;9.70;99.90;;;;;;4986868;28;20066;-71
2021/12/13 14:27:59;;;;;;;;;;;9.70;99.90;;;;;;4986950;28;20141;-73
2021/12/13 14:30:29;;;;;;;;;;;9.70;99.90;;;;;;4983554;28;20128;-72
2021/12/13 14:32:57;;;;;;;;;;;9.70;99.90;;;;;;4984848;28;20067;-72
2021/12/13 14:35:28;;;;;;;;;;;9.70;99.90;;;;;;4971693;28;20228;-73
2021/12/13 14:38:05;;;;;;;;;;;9.60;99.90;;;;;;4987036;28;21283;-72
2021/12/13 14:40:42;;;;;;;;;;;9.60;99.90;;;;;;4987350;28;20086;-73
2021/12/13 14:43:16;;;;;;;;;;;9.60;99.90;;;;;;4988295;28;20084;-72
2021/12/13 14:45:43;;;;;;;;;;;9.60;99.90;;;;;;4987729;28;20098;-72
2021/12/13 14:48:11;;;;;;;;;;;9.50;99.90;;;;;;4986886;28;20263;-72
2021/12/13 14:50:38;;;;;;;;;;;9.50;99.90;;;;;;4986849;28;21115;-72